Thunder radar more information blitzortung!


Radar de pluja more information rain snow radar


Visita la nostra xarxa de llocs de meteo:

Template documentation
and downloads

And another site



No particular awareness of the weather is required.    There are no Weather-warnings

Pagina Historial Weather Underground text

Diari Resum May 6, 2017 Unitats:  Tant    Imperial   Mètric
« Previous Dia
SegĂźent Dia »
Diari Setmana Mensual Anual Personalitzada
  Maxima: Minima: Media:
Temperatura: 78.6 °F /  25.9 °C 52.9 °F /  11.6 °C 68.7 °F /  20.4 °C
Punt de rosada: 49.1 °F /  9.5 °C 33.8 °F /  1.0 °C 43.5 °F /  6.4 °C
Humitat: 69 % 22 % 43 %
Wind Speed: 16.1 mph /  25.9 km/h - 6 mph /  9.7 km/h
RĂ fegues de vent: 16.1 mph /  25.9 km/h - -
Vent:- - SSW
Pression baro: 30.1 in /  1019.9 hPa 29.8 in /  1010.0 hPa -
Precipitacions: 0 in /  0.0 mm    
Historical Graphs
 
 
Dades de taula per May 6, 2017
Temps Temperatura Punt de rosada Pression baro Vent Wind Speed RĂ fegues de vent Humitat Rainfall Rate (Hourly)
00:04 60.8 °F /  16.0 °C 44.4 °F /  6.9 °C 29.8 in /  1010.7 hPa East 3.5 mph /  5.6 km/h 3.5 mph /  5.6 km/h 55 % 0 in /  0.0 mm
00:05 57 °F /  13.9 °C 45.9 °F /  7.7 °C 29.8 in /  1010.0 hPa WSW 3 mph /  4.8 km/h 4 mph /  6.4 km/h 66 % 0 in /  0.0 mm
00:15 57.7 °F /  14.3 °C 46.6 °F /  8.1 °C 29.8 in /  1010.0 hPa West 6 mph /  9.7 km/h 11 mph /  17.7 km/h 66 % 0 in /  0.0 mm
00:25 57.9 °F /  14.4 °C 46.2 °F /  7.9 °C 29.8 in /  1010.0 hPa WSW 3 mph /  4.8 km/h 5 mph /  8.0 km/h 65 % 0 in /  0.0 mm
00:35 57.9 °F /  14.4 °C 46.2 °F /  7.9 °C 29.8 in /  1010.0 hPa West 1 mph /  1.6 km/h 5 mph /  8.0 km/h 65 % 0 in /  0.0 mm
00:45 57.7 °F /  14.3 °C 46 °F /  7.8 °C 29.8 in /  1010.0 hPa West 2 mph /  3.2 km/h 3 mph /  4.8 km/h 65 % 0 in /  0.0 mm
00:55 57.7 °F /  14.3 °C 46 °F /  7.8 °C 29.8 in /  1010.0 hPa WSW 3 mph /  4.8 km/h 4 mph /  6.4 km/h 65 % 0 in /  0.0 mm
01:05 57.9 °F /  14.4 °C 46.6 °F /  8.1 °C 29.8 in /  1010.0 hPa WSW 1 mph /  1.6 km/h 2 mph /  3.2 km/h 66 % 0 in /  0.0 mm
01:15 58.1 °F /  14.5 °C 46.8 °F /  8.2 °C 29.8 in /  1010.0 hPa WSW 2 mph /  3.2 km/h 4 mph /  6.4 km/h 66 % 0 in /  0.0 mm
01:25 58.3 °F /  14.6 °C 47.5 °F /  8.6 °C 29.8 in /  1010.0 hPa WSW 2 mph /  3.2 km/h 6 mph /  9.7 km/h 67 % 0 in /  0.0 mm
01:35 58.5 °F /  14.7 °C 47.8 °F /  8.8 °C 29.8 in /  1010.0 hPa WSW 6 mph /  9.7 km/h 7 mph /  11.3 km/h 68 % 0 in /  0.0 mm
01:45 58.6 °F /  14.8 °C 48 °F /  8.9 °C 29.8 in /  1010.0 hPa WSW 2 mph /  3.2 km/h 5 mph /  8.0 km/h 68 % 0 in /  0.0 mm
01:55 58.3 °F /  14.6 °C 47.8 °F /  8.8 °C 29.8 in /  1010.0 hPa WSW 2 mph /  3.2 km/h 3 mph /  4.8 km/h 68 % 0 in /  0.0 mm
02:05 57.9 °F /  14.4 °C 47.5 °F /  8.6 °C 29.8 in /  1010.0 hPa WSW 2 mph /  3.2 km/h 2 mph /  3.2 km/h 68 % 0 in /  0.0 mm
02:15 57.7 °F /  14.3 °C 47.1 °F /  8.4 °C 29.8 in /  1010.0 hPa SW 2 mph /  3.2 km/h 4 mph /  6.4 km/h 68 % 0 in /  0.0 mm
02:25 58.3 °F /  14.6 °C 47.5 °F /  8.6 °C 29.8 in /  1010.0 hPa WSW 2 mph /  3.2 km/h 4 mph /  6.4 km/h 67 % 0 in /  0.0 mm
02:35 58.8 °F /  14.9 °C 47.5 °F /  8.6 °C 29.8 in /  1010.0 hPa West 3 mph /  4.8 km/h 4 mph /  6.4 km/h 66 % 0 in /  0.0 mm
02:45 59 °F /  15.0 °C 47.1 °F /  8.4 °C 29.8 in /  1010.0 hPa West 3 mph /  4.8 km/h 9 mph /  14.5 km/h 65 % 0 in /  0.0 mm
02:55 59.4 °F /  15.2 °C 47.7 °F /  8.7 °C 29.8 in /  1010.0 hPa West 5 mph /  8.0 km/h 5 mph /  8.0 km/h 65 % 0 in /  0.0 mm
03:05 59.4 °F /  15.2 °C 47.1 °F /  8.4 °C 29.8 in /  1010.7 hPa West 3 mph /  4.8 km/h 8 mph /  12.9 km/h 64 % 0 in /  0.0 mm
03:15 59.5 °F /  15.3 °C 47.3 °F /  8.5 °C 29.8 in /  1010.7 hPa West 3 mph /  4.8 km/h 3 mph /  4.8 km/h 64 % 0 in /  0.0 mm
03:25 59.9 °F /  15.5 °C 47.7 °F /  8.7 °C 29.8 in /  1010.7 hPa WSW 3 mph /  4.8 km/h 4 mph /  6.4 km/h 64 % 0 in /  0.0 mm
03:35 60.8 °F /  16.0 °C 48.6 °F /  9.2 °C 29.8 in /  1010.7 hPa WNW 2 mph /  3.2 km/h 3 mph /  4.8 km/h 64 % 0 in /  0.0 mm
03:45 60.8 °F /  16.0 °C 48 °F /  8.9 °C 29.8 in /  1010.7 hPa WNW 3 mph /  4.8 km/h 8 mph /  12.9 km/h 63 % 0 in /  0.0 mm
03:55 61.2 °F /  16.2 °C 48 °F /  8.9 °C 29.9 in /  1011.7 hPa West 5 mph /  8.0 km/h 6 mph /  9.7 km/h 62 % 0 in /  0.0 mm
04:05 62.2 °F /  16.8 °C 49.1 °F /  9.5 °C 29.9 in /  1011.7 hPa West 3 mph /  4.8 km/h 4 mph /  6.4 km/h 62 % 0 in /  0.0 mm
04:15 62.8 °F /  17.1 °C 49.1 °F /  9.5 °C 29.9 in /  1011.7 hPa WSW 3 mph /  4.8 km/h 4 mph /  6.4 km/h 61 % 0 in /  0.0 mm
04:25 63.3 °F /  17.4 °C 48.7 °F /  9.3 °C 29.9 in /  1011.7 hPa SW 3 mph /  4.8 km/h 5 mph /  8.0 km/h 59 % 0 in /  0.0 mm
04:35 62.8 °F /  17.1 °C 46.4 °F /  8.0 °C 29.9 in /  1011.7 hPa West 7 mph /  11.3 km/h 7 mph /  11.3 km/h 55 % 0 in /  0.0 mm
04:45 63.1 °F /  17.3 °C 46.2 °F /  7.9 °C 29.9 in /  1011.7 hPa West 3 mph /  4.8 km/h 6 mph /  9.7 km/h 54 % 0 in /  0.0 mm
04:55 63.1 °F /  17.3 °C 45.7 °F /  7.6 °C 29.9 in /  1011.7 hPa WSW 6 mph /  9.7 km/h 7 mph /  11.3 km/h 53 % 0 in /  0.0 mm
05:05 63.5 °F /  17.5 °C 45.7 °F /  7.6 °C 29.9 in /  1011.7 hPa WSW 6 mph /  9.7 km/h 11 mph /  17.7 km/h 52 % 0 in /  0.0 mm
05:15 64.4 °F /  18.0 °C 45.9 °F /  7.7 °C 29.9 in /  1011.7 hPa West 5 mph /  8.0 km/h 11 mph /  17.7 km/h 51 % 0 in /  0.0 mm
05:25 64.9 °F /  18.3 °C 45.9 °F /  7.7 °C 29.9 in /  1011.7 hPa West 6 mph /  9.7 km/h 10 mph /  16.1 km/h 50 % 0 in /  0.0 mm
05:35 65.8 °F /  18.8 °C 46.8 °F /  8.2 °C 29.9 in /  1012.8 hPa West 5 mph /  8.0 km/h 8 mph /  12.9 km/h 50 % 0 in /  0.0 mm
05:45 66.9 °F /  19.4 °C 47.1 °F /  8.4 °C 29.9 in /  1012.8 hPa West 3 mph /  4.8 km/h 6 mph /  9.7 km/h 49 % 0 in /  0.0 mm
05:55 67.6 °F /  19.8 °C 47.1 °F /  8.4 °C 29.9 in /  1012.8 hPa WSW 5 mph /  8.0 km/h 6 mph /  9.7 km/h 48 % 0 in /  0.0 mm
06:05 68.4 °F /  20.2 °C 47.3 °F /  8.5 °C 29.9 in /  1012.8 hPa West 2 mph /  3.2 km/h 10 mph /  16.1 km/h 47 % 0 in /  0.0 mm
11:10 68.2 °F /  20.1 °C 46 °F /  7.8 °C 29.9 in /  1012.8 hPa NW 5.9 mph /  9.5 km/h 5.9 mph /  9.5 km/h 45 % 0 in /  0.0 mm
11:15 68.2 °F /  20.1 °C 45.3 °F /  7.4 °C 29.9 in /  1013.8 hPa WSW 6.9 mph /  11.1 km/h 6.9 mph /  11.1 km/h 44 % 0 in /  0.0 mm
11:20 68.7 °F /  20.4 °C 45.9 °F /  7.7 °C 29.9 in /  1013.8 hPa WNW 5.8 mph /  9.3 km/h 5.8 mph /  9.3 km/h 44 % 0 in /  0.0 mm
11:25 68.9 °F /  20.5 °C 45.5 °F /  7.5 °C 29.9 in /  1013.8 hPa SSW 6.9 mph /  11.1 km/h 6.9 mph /  11.1 km/h 43 % 0 in /  0.0 mm
11:31 69.3 °F /  20.7 °C 45.1 °F /  7.3 °C 29.9 in /  1012.8 hPa WSW 5.8 mph /  9.3 km/h 5.8 mph /  9.3 km/h 42 % 0 in /  0.0 mm
11:36 69.6 °F /  20.9 °C 46 °F /  7.8 °C 29.9 in /  1012.8 hPa WSW 5.8 mph /  9.3 km/h 5.8 mph /  9.3 km/h 43 % 0 in /  0.0 mm
11:41 69.6 °F /  20.9 °C 45.5 °F /  7.5 °C 29.9 in /  1013.8 hPa West 5.8 mph /  9.3 km/h 5.8 mph /  9.3 km/h 42 % 0 in /  0.0 mm
11:46 70.7 °F /  21.5 °C 46.6 °F /  8.1 °C 29.9 in /  1013.8 hPa WNW 7.6 mph /  12.2 km/h 7.6 mph /  12.2 km/h 42 % 0 in /  0.0 mm
11:51 70.2 °F /  21.2 °C 45.3 °F /  7.4 °C 29.9 in /  1013.8 hPa SW 9.4 mph /  15.1 km/h 9.4 mph /  15.1 km/h 41 % 0 in /  0.0 mm
11:56 70.2 °F /  21.2 °C 44.8 °F /  7.1 °C 29.9 in /  1013.8 hPa SW 6.4 mph /  10.3 km/h 6.4 mph /  10.3 km/h 40 % 0 in /  0.0 mm
12:01 70.9 °F /  21.6 °C 46 °F /  7.8 °C 29.9 in /  1013.8 hPa ENE 4.6 mph /  7.4 km/h 4.6 mph /  7.4 km/h 41 % 0 in /  0.0 mm
12:06 70.7 °F /  21.5 °C 45.1 °F /  7.3 °C 29.9 in /  1013.8 hPa WSW 12.7 mph /  20.4 km/h 12.7 mph /  20.4 km/h 40 % 0 in /  0.0 mm
12:11 71.2 °F /  21.8 °C 45.7 °F /  7.6 °C 29.9 in /  1013.8 hPa NW 8.1 mph /  13.0 km/h 8.1 mph /  13.0 km/h 40 % 0 in /  0.0 mm
12:16 71.4 °F /  21.9 °C 45.9 °F /  7.7 °C 29.9 in /  1013.8 hPa SSW 6.9 mph /  11.1 km/h 6.9 mph /  11.1 km/h 40 % 0 in /  0.0 mm
12:21 71.2 °F /  21.8 °C 45.7 °F /  7.6 °C 29.9 in /  1013.8 hPa East 5.8 mph /  9.3 km/h 5.8 mph /  9.3 km/h 40 % 0 in /  0.0 mm
12:26 71.6 °F /  22.0 °C 46 °F /  7.8 °C 29.9 in /  1013.8 hPa NW 8.1 mph /  13.0 km/h 8.1 mph /  13.0 km/h 40 % 0 in /  0.0 mm
12:31 71.4 °F /  21.9 °C 45.1 °F /  7.3 °C 29.9 in /  1013.8 hPa WSW 6.9 mph /  11.1 km/h 7.1 mph /  11.4 km/h 39 % 0 in /  0.0 mm
12:36 71.4 °F /  21.9 °C 45.1 °F /  7.3 °C 29.9 in /  1013.8 hPa West 8.7 mph /  14.0 km/h 8.7 mph /  14.0 km/h 39 % 0 in /  0.0 mm
12:41 71.4 °F /  21.9 °C 45.1 °F /  7.3 °C 29.9 in /  1013.8 hPa West 8.1 mph /  13.0 km/h 8.1 mph /  13.0 km/h 39 % 0 in /  0.0 mm
12:46 71.8 °F /  22.1 °C 45.5 °F /  7.5 °C 29.9 in /  1013.8 hPa WNW 9.2 mph /  14.8 km/h 9.2 mph /  14.8 km/h 39 % 0 in /  0.0 mm
12:51 71.8 °F /  22.1 °C 45.5 °F /  7.5 °C 29.9 in /  1013.8 hPa West 9.2 mph /  14.8 km/h 9.2 mph /  14.8 km/h 39 % 0 in /  0.0 mm
12:56 71.8 °F /  22.1 °C 44.8 °F /  7.1 °C 29.9 in /  1012.8 hPa West 12.7 mph /  20.4 km/h 12.7 mph /  20.4 km/h 38 % 0 in /  0.0 mm
13:01 72 °F /  22.2 °C 45 °F /  7.2 °C 29.9 in /  1012.8 hPa WSW 8.5 mph /  13.7 km/h 8.5 mph /  13.7 km/h 38 % 0 in /  0.0 mm
13:06 72.3 °F /  22.4 °C 45.3 °F /  7.4 °C 29.9 in /  1012.8 hPa NNW 11.2 mph /  18.0 km/h 11.2 mph /  18.0 km/h 38 % 0 in /  0.0 mm
13:11 71.6 °F /  22.0 °C 43.2 °F /  6.2 °C 29.9 in /  1013.8 hPa WNW 8.1 mph /  13.0 km/h 8.1 mph /  13.0 km/h 36 % 0 in /  0.0 mm
13:16 71.8 °F /  22.1 °C 44.1 °F /  6.7 °C 29.9 in /  1013.8 hPa SW 10 mph /  16.1 km/h 10 mph /  16.1 km/h 37 % 0 in /  0.0 mm
13:21 72 °F /  22.2 °C 44.2 °F /  6.8 °C 29.9 in /  1013.8 hPa WSW 8.1 mph /  13.0 km/h 8.1 mph /  13.0 km/h 37 % 0 in /  0.0 mm
13:26 72.1 °F /  22.3 °C 44.4 °F /  6.9 °C 29.9 in /  1013.8 hPa WSW 10.4 mph /  16.7 km/h 10.4 mph /  16.7 km/h 37 % 0 in /  0.0 mm
13:31 72.5 °F /  22.5 °C 44.8 °F /  7.1 °C 29.9 in /  1013.8 hPa SW 6 mph /  9.7 km/h 6 mph /  9.7 km/h 37 % 0 in /  0.0 mm
13:36 73.4 °F /  23.0 °C 44.8 °F /  7.1 °C 29.9 in /  1013.8 hPa West 8.1 mph /  13.0 km/h 8.1 mph /  13.0 km/h 36 % 0 in /  0.0 mm
13:41 73.2 °F /  22.9 °C 45.3 °F /  7.4 °C 29.9 in /  1013.8 hPa SW 6.9 mph /  11.1 km/h 6.9 mph /  11.1 km/h 37 % 0 in /  0.0 mm
13:46 73.9 °F /  23.3 °C 45.3 °F /  7.4 °C 29.9 in /  1013.8 hPa West 5.8 mph /  9.3 km/h 5.8 mph /  9.3 km/h 36 % 0 in /  0.0 mm
13:51 74.1 °F /  23.4 °C 45.5 °F /  7.5 °C 29.9 in /  1013.8 hPa WNW 10.4 mph /  16.7 km/h 10.4 mph /  16.7 km/h 36 % 0 in /  0.0 mm
13:56 74.1 °F /  23.4 °C 44.8 °F /  7.1 °C 29.9 in /  1013.8 hPa WSW 9.2 mph /  14.8 km/h 9.2 mph /  14.8 km/h 35 % 0 in /  0.0 mm
14:01 74.3 °F /  23.5 °C 45 °F /  7.2 °C 29.9 in /  1013.8 hPa WSW 8.1 mph /  13.0 km/h 8.1 mph /  13.0 km/h 35 % 0 in /  0.0 mm
14:06 74.5 °F /  23.6 °C 45 °F /  7.2 °C 29.9 in /  1013.8 hPa South 8.1 mph /  13.0 km/h 8.1 mph /  13.0 km/h 35 % 0 in /  0.0 mm
14:11 74.7 °F /  23.7 °C 44.4 °F /  6.9 °C 29.9 in /  1013.8 hPa WSW 8.1 mph /  13.0 km/h 8.1 mph /  13.0 km/h 34 % 0 in /  0.0 mm
14:16 74.5 °F /  23.6 °C 44.2 °F /  6.8 °C 29.9 in /  1013.8 hPa WSW 9.8 mph /  15.8 km/h 9.8 mph /  15.8 km/h 34 % 0 in /  0.0 mm
14:21 75 °F /  23.9 °C 45.5 °F /  7.5 °C 29.9 in /  1013.8 hPa WNW 8.1 mph /  13.0 km/h 8.1 mph /  13.0 km/h 35 % 0 in /  0.0 mm
14:26 74.5 °F /  23.6 °C 43.5 °F /  6.4 °C 29.9 in /  1012.8 hPa WSW 12.7 mph /  20.4 km/h 12.7 mph /  20.4 km/h 33 % 0 in /  0.0 mm
14:31 75.6 °F /  24.2 °C 45.1 °F /  7.3 °C 29.9 in /  1012.8 hPa WSW 5.8 mph /  9.3 km/h 5.8 mph /  9.3 km/h 34 % 0 in /  0.0 mm
14:36 75.4 °F /  24.1 °C 44.2 °F /  6.8 °C 29.9 in /  1012.8 hPa West 8.1 mph /  13.0 km/h 8.1 mph /  13.0 km/h 33 % 0 in /  0.0 mm
14:41 74.8 °F /  23.8 °C 43.9 °F /  6.6 °C 29.9 in /  1013.8 hPa WSW 11.5 mph /  18.5 km/h 11.5 mph /  18.5 km/h 33 % 0 in /  0.0 mm
14:46 75.4 °F /  24.1 °C 43.5 °F /  6.4 °C 29.9 in /  1013.8 hPa WSW 10.4 mph /  16.7 km/h 10.4 mph /  16.7 km/h 32 % 0 in /  0.0 mm
14:51 75.9 °F /  24.4 °C 44.8 °F /  7.1 °C 29.9 in /  1013.8 hPa West 5.8 mph /  9.3 km/h 5.8 mph /  9.3 km/h 33 % 0 in /  0.0 mm
14:56 76.5 °F /  24.7 °C 44.4 °F /  6.9 °C 29.9 in /  1013.8 hPa WSW 10.4 mph /  16.7 km/h 10.4 mph /  16.7 km/h 32 % 0 in /  0.0 mm
15:01 76.3 °F /  24.6 °C 44.2 °F /  6.8 °C 29.9 in /  1013.8 hPa West 10.5 mph /  16.9 km/h 10.5 mph /  16.9 km/h 32 % 0 in /  0.0 mm
15:06 76.5 °F /  24.7 °C 44.4 °F /  6.9 °C 29.9 in /  1013.8 hPa WSW 10.5 mph /  16.9 km/h 10.5 mph /  16.9 km/h 32 % 0 in /  0.0 mm
15:11 75.9 °F /  24.4 °C 43.2 °F /  6.2 °C 29.9 in /  1013.8 hPa West 8.1 mph /  13.0 km/h 8.1 mph /  13.0 km/h 31 % 0 in /  0.0 mm
15:16 76.5 °F /  24.7 °C 44.4 °F /  6.9 °C 29.9 in /  1013.8 hPa WSW 9.2 mph /  14.8 km/h 9.2 mph /  14.8 km/h 32 % 0 in /  0.0 mm
15:21 76.6 °F /  24.8 °C 44.6 °F /  7.0 °C 29.9 in /  1013.8 hPa West 8.1 mph /  13.0 km/h 8.1 mph /  13.0 km/h 32 % 0 in /  0.0 mm
15:22 76.8 °F /  24.9 °C 44.8 °F /  7.1 °C 29.9 in /  1013.8 hPa WSW 8.1 mph /  13.0 km/h 8.1 mph /  13.0 km/h 32 % 0 in /  0.0 mm
15:27 76.6 °F /  24.8 °C 43.7 °F /  6.5 °C 29.9 in /  1013.8 hPa WSW 10.4 mph /  16.7 km/h 10.4 mph /  16.7 km/h 31 % 0 in /  0.0 mm
15:32 76.3 °F /  24.6 °C 42.6 °F /  5.9 °C 29.9 in /  1013.8 hPa WSW 8.1 mph /  13.0 km/h 8.1 mph /  13.0 km/h 30 % 0 in /  0.0 mm
15:37 76.3 °F /  24.6 °C 42.6 °F /  5.9 °C 29.9 in /  1013.8 hPa SW 6.9 mph /  11.1 km/h 6.9 mph /  11.1 km/h 30 % 0 in /  0.0 mm
15:42 76.8 °F /  24.9 °C 43.9 °F /  6.6 °C 29.9 in /  1013.8 hPa SW 6.9 mph /  11.1 km/h 6.9 mph /  11.1 km/h 31 % 0 in /  0.0 mm
15:47 77.7 °F /  25.4 °C 43.9 °F /  6.6 °C 29.9 in /  1013.8 hPa West 7.6 mph /  12.2 km/h 7.6 mph /  12.2 km/h 30 % 0 in /  0.0 mm
15:52 77.4 °F /  25.2 °C 42.6 °F /  5.9 °C 29.9 in /  1013.8 hPa WSW 8.1 mph /  13.0 km/h 8.1 mph /  13.0 km/h 29 % 0 in /  0.0 mm
15:57 77.2 °F /  25.1 °C 42.4 °F /  5.8 °C 29.9 in /  1013.8 hPa West 8.1 mph /  13.0 km/h 8.1 mph /  13.0 km/h 29 % 0 in /  0.0 mm
16:02 77.4 °F /  25.2 °C 42.6 °F /  5.9 °C 29.9 in /  1013.8 hPa WSW 6.9 mph /  11.1 km/h 6.9 mph /  11.1 km/h 29 % 0 in /  0.0 mm
16:07 78.3 °F /  25.7 °C 43.3 °F /  6.3 °C 29.9 in /  1013.8 hPa WSW 5.8 mph /  9.3 km/h 5.8 mph /  9.3 km/h 29 % 0 in /  0.0 mm
16:12 77.5 °F /  25.3 °C 42.8 °F /  6.0 °C 30 in /  1014.8 hPa West 8.1 mph /  13.0 km/h 8.1 mph /  13.0 km/h 29 % 0 in /  0.0 mm
16:14 77.5 °F /  25.3 °C 42.8 °F /  6.0 °C 30 in /  1014.8 hPa SW 5.8 mph /  9.3 km/h 5.8 mph /  9.3 km/h 29 % 0 in /  0.0 mm
16:19 78.1 °F /  25.6 °C 43.2 °F /  6.2 °C 30 in /  1014.8 hPa SW 9.2 mph /  14.8 km/h 9.2 mph /  14.8 km/h 29 % 0 in /  0.0 mm
16:24 77.7 °F /  25.4 °C 42.1 °F /  5.6 °C 30 in /  1014.8 hPa WSW 7.1 mph /  11.4 km/h 7.1 mph /  11.4 km/h 28 % 0 in /  0.0 mm
16:29 77.7 °F /  25.4 °C 42.1 °F /  5.6 °C 30 in /  1014.8 hPa SW 6.9 mph /  11.1 km/h 6.9 mph /  11.1 km/h 28 % 0 in /  0.0 mm
16:34 77.2 °F /  25.1 °C 41.5 °F /  5.3 °C 30 in /  1014.8 hPa West 16.1 mph /  25.9 km/h 16.1 mph /  25.9 km/h 28 % 0 in /  0.0 mm
16:39 77.5 °F /  25.3 °C 40.8 °F /  4.9 °C 30 in /  1014.8 hPa West 10.4 mph /  16.7 km/h 10.4 mph /  16.7 km/h 27 % 0 in /  0.0 mm
16:44 77.2 °F /  25.1 °C 40.6 °F /  4.8 °C 30 in /  1014.8 hPa WNW 6.9 mph /  11.1 km/h 6.9 mph /  11.1 km/h 27 % 0 in /  0.0 mm
16:49 76.8 °F /  24.9 °C 41.2 °F /  5.1 °C 30 in /  1014.8 hPa West 8.1 mph /  13.0 km/h 8.1 mph /  13.0 km/h 28 % 0 in /  0.0 mm
16:54 77.7 °F /  25.4 °C 41.2 °F /  5.1 °C 30 in /  1014.8 hPa WNW 3.5 mph /  5.6 km/h 3.6 mph /  5.8 km/h 27 % 0 in /  0.0 mm
16:59 78.1 °F /  25.6 °C 41.4 °F /  5.2 °C 30 in /  1014.8 hPa WSW 6.9 mph /  11.1 km/h 6.9 mph /  11.1 km/h 27 % 0 in /  0.0 mm
17:04 77.5 °F /  25.3 °C 39.9 °F /  4.4 °C 30 in /  1014.8 hPa SW 9.2 mph /  14.8 km/h 9.2 mph /  14.8 km/h 26 % 0 in /  0.0 mm
17:09 77.5 °F /  25.3 °C 39.9 °F /  4.4 °C 30 in /  1014.8 hPa West 6.9 mph /  11.1 km/h 6.9 mph /  11.1 km/h 26 % 0 in /  0.0 mm
17:14 78.1 °F /  25.6 °C 40.5 °F /  4.7 °C 30 in /  1014.8 hPa SSW 5.8 mph /  9.3 km/h 5.8 mph /  9.3 km/h 26 % 0 in /  0.0 mm
17:19 78.1 °F /  25.6 °C 39.4 °F /  4.1 °C 30 in /  1014.8 hPa WSW 11.5 mph /  18.5 km/h 11.5 mph /  18.5 km/h 25 % 0 in /  0.0 mm
17:24 78.1 °F /  25.6 °C 39.4 °F /  4.1 °C 30 in /  1014.8 hPa WSW 5.8 mph /  9.3 km/h 5.8 mph /  9.3 km/h 25 % 0 in /  0.0 mm
17:29 78.3 °F /  25.7 °C 40.5 °F /  4.7 °C 29.9 in /  1013.8 hPa SW 5.8 mph /  9.3 km/h 5.8 mph /  9.3 km/h 26 % 0 in /  0.0 mm
17:34 77.9 °F /  25.5 °C 39.2 °F /  4.0 °C 29.9 in /  1013.8 hPa WSW 5.8 mph /  9.3 km/h 5.8 mph /  9.3 km/h 25 % 0 in /  0.0 mm
17:39 78.6 °F /  25.9 °C 39.7 °F /  4.3 °C 29.9 in /  1013.8 hPa WSW 5.8 mph /  9.3 km/h 5.8 mph /  9.3 km/h 25 % 0 in /  0.0 mm
17:44 78.1 °F /  25.6 °C 38.3 °F /  3.5 °C 30 in /  1014.8 hPa West 9.2 mph /  14.8 km/h 9.2 mph /  14.8 km/h 24 % 0 in /  0.0 mm
17:50 77.9 °F /  25.5 °C 37 °F /  2.8 °C 30 in /  1014.8 hPa WSW 5 mph /  8.0 km/h 12 mph /  19.3 km/h 23 % 0 in /  0.0 mm
17:55 78.1 °F /  25.6 °C 38.3 °F /  3.5 °C 30 in /  1014.8 hPa WSW 3 mph /  4.8 km/h 7 mph /  11.3 km/h 24 % 0 in /  0.0 mm
18:00 78.1 °F /  25.6 °C 38.3 °F /  3.5 °C 30 in /  1014.8 hPa WNW 6.9 mph /  11.1 km/h 6.9 mph /  11.1 km/h 24 % 0 in /  0.0 mm
18:05 77.5 °F /  25.3 °C 36.9 °F /  2.7 °C 30 in /  1014.8 hPa WSW 11.5 mph /  18.5 km/h 11.5 mph /  18.5 km/h 23 % 0 in /  0.0 mm
18:10 77.2 °F /  25.1 °C 36.5 °F /  2.5 °C 30 in /  1014.8 hPa NNW 8.1 mph /  13.0 km/h 8.1 mph /  13.0 km/h 23 % 0 in /  0.0 mm
18:15 77.2 °F /  25.1 °C 36.5 °F /  2.5 °C 30 in /  1014.8 hPa West 6.9 mph /  11.1 km/h 6.9 mph /  11.1 km/h 23 % 0 in /  0.0 mm
18:20 77 °F /  25.0 °C 35.2 °F /  1.8 °C 30 in /  1014.8 hPa West 7 mph /  11.3 km/h 10 mph /  16.1 km/h 22 % 0 in /  0.0 mm
18:25 77.5 °F /  25.3 °C 36.9 °F /  2.7 °C 30 in /  1014.8 hPa NNW 4.6 mph /  7.4 km/h 4.6 mph /  7.4 km/h 23 % 0 in /  0.0 mm
18:30 77.4 °F /  25.2 °C 36.7 °F /  2.6 °C 30 in /  1014.8 hPa West 7.1 mph /  11.4 km/h 7.1 mph /  11.4 km/h 23 % 0 in /  0.0 mm
18:35 77.2 °F /  25.1 °C 36.5 °F /  2.5 °C 30 in /  1014.8 hPa West 10.4 mph /  16.7 km/h 10.4 mph /  16.7 km/h 23 % 0 in /  0.0 mm
18:40 76.8 °F /  24.9 °C 36.1 °F /  2.3 °C 30 in /  1014.8 hPa SW 4.6 mph /  7.4 km/h 5.9 mph /  9.5 km/h 23 % 0 in /  0.0 mm
18:45 77 °F /  25.0 °C 36.3 °F /  2.4 °C 30 in /  1014.8 hPa West 3.5 mph /  5.6 km/h 3.5 mph /  5.6 km/h 23 % 0 in /  0.0 mm
18:50 76.8 °F /  24.9 °C 38.3 °F /  3.5 °C 30 in /  1014.8 hPa NNW 5.9 mph /  9.5 km/h 5.9 mph /  9.5 km/h 25 % 0 in /  0.0 mm
18:55 76.6 °F /  24.8 °C 37 °F /  2.8 °C 30 in /  1014.8 hPa SW 9.2 mph /  14.8 km/h 9.2 mph /  14.8 km/h 24 % 0 in /  0.0 mm
19:00 76.1 °F /  24.5 °C 35.6 °F /  2.0 °C 30 in /  1015.8 hPa WSW 5 mph /  8.0 km/h 10 mph /  16.1 km/h 23 % 0 in /  0.0 mm
19:05 75.7 °F /  24.3 °C 34.2 °F /  1.2 °C 30 in /  1015.8 hPa SW 8.1 mph /  13.0 km/h 8.1 mph /  13.0 km/h 22 % 0 in /  0.0 mm
19:10 75.7 °F /  24.3 °C 35.2 °F /  1.8 °C 30 in /  1015.8 hPa SSW 5.8 mph /  9.3 km/h 5.8 mph /  9.3 km/h 23 % 0 in /  0.0 mm
19:15 75.6 °F /  24.2 °C 35.1 °F /  1.7 °C 30 in /  1015.8 hPa WSW 5.8 mph /  9.3 km/h 5.8 mph /  9.3 km/h 23 % 0 in /  0.0 mm
19:20 75.6 °F /  24.2 °C 35.1 °F /  1.7 °C 30 in /  1015.8 hPa West 5.8 mph /  9.3 km/h 5.8 mph /  9.3 km/h 23 % 0 in /  0.0 mm
19:25 75.4 °F /  24.1 °C 36 °F /  2.2 °C 30 in /  1015.8 hPa WSW 3 mph /  4.8 km/h 7 mph /  11.3 km/h 24 % 0 in /  0.0 mm
19:30 74.8 °F /  23.8 °C 35.6 °F /  2.0 °C 30 in /  1015.8 hPa West 6 mph /  9.7 km/h 6 mph /  9.7 km/h 24 % 0 in /  0.0 mm
19:35 74.5 °F /  23.6 °C 35.2 °F /  1.8 °C 30 in /  1015.8 hPa SW 4.6 mph /  7.4 km/h 4.6 mph /  7.4 km/h 24 % 0 in /  0.0 mm
19:40 74.5 °F /  23.6 °C 35.2 °F /  1.8 °C 30 in /  1015.8 hPa SW 5.8 mph /  9.3 km/h 5.8 mph /  9.3 km/h 24 % 0 in /  0.0 mm
19:45 73.9 °F /  23.3 °C 33.8 °F /  1.0 °C 30 in /  1014.8 hPa WSW 4.6 mph /  7.4 km/h 4.6 mph /  7.4 km/h 23 % 0 in /  0.0 mm
19:50 73.8 °F /  23.2 °C 34.7 °F /  1.5 °C 30 in /  1014.8 hPa West 2 mph /  3.2 km/h 3 mph /  4.8 km/h 24 % 0 in /  0.0 mm
19:55 73.6 °F /  23.1 °C 34.5 °F /  1.4 °C 30 in /  1014.8 hPa WSW 1 mph /  1.6 km/h 3 mph /  4.8 km/h 24 % 0 in /  0.0 mm
20:00 73.2 °F /  22.9 °C 34.3 °F /  1.3 °C 30 in /  1015.8 hPa SSW 1 mph /  1.6 km/h 4 mph /  6.4 km/h 24 % 0 in /  0.0 mm
20:05 69.6 °F /  20.9 °C 38.5 °F /  3.6 °C 30 in /  1015.8 hPa ESE 8 mph /  12.9 km/h 12 mph /  19.3 km/h 32 % 0 in /  0.0 mm
20:10 68.2 °F /  20.1 °C 39.6 °F /  4.2 °C 30 in /  1015.8 hPa ESE 5 mph /  8.0 km/h 12 mph /  19.3 km/h 35 % 0 in /  0.0 mm
20:15 67.3 °F /  19.6 °C 42.1 °F /  5.6 °C 30 in /  1016.8 hPa NNE 11.5 mph /  18.5 km/h 11.5 mph /  18.5 km/h 40 % 0 in /  0.0 mm
20:20 66.4 °F /  19.1 °C 43.2 °F /  6.2 °C 30 in /  1016.8 hPa NE 11.5 mph /  18.5 km/h 11.5 mph /  18.5 km/h 43 % 0 in /  0.0 mm
20:25 66 °F /  18.9 °C 44.6 °F /  7.0 °C 30 in /  1016.8 hPa ENE 12.7 mph /  20.4 km/h 12.7 mph /  20.4 km/h 46 % 0 in /  0.0 mm
20:30 65.7 °F /  18.7 °C 45 °F /  7.2 °C 30.1 in /  1017.8 hPa East 9.2 mph /  14.8 km/h 9.2 mph /  14.8 km/h 47 % 0 in /  0.0 mm
20:35 65.1 °F /  18.4 °C 45.5 °F /  7.5 °C 30.1 in /  1017.8 hPa East 8.1 mph /  13.0 km/h 8.1 mph /  13.0 km/h 49 % 0 in /  0.0 mm
20:40 64.8 °F /  18.2 °C 45.1 °F /  7.3 °C 30.1 in /  1017.8 hPa East 5 mph /  8.0 km/h 12 mph /  19.3 km/h 49 % 0 in /  0.0 mm
20:45 64.2 °F /  17.9 °C 45.1 °F /  7.3 °C 30.1 in /  1017.8 hPa ENE 5.8 mph /  9.3 km/h 5.8 mph /  9.3 km/h 50 % 0 in /  0.0 mm
20:50 64 °F /  17.8 °C 45 °F /  7.2 °C 30.1 in /  1017.8 hPa East 4.6 mph /  7.4 km/h 4.6 mph /  7.4 km/h 50 % 0 in /  0.0 mm
20:55 63.5 °F /  17.5 °C 45 °F /  7.2 °C 30.1 in /  1017.8 hPa ENE 7.6 mph /  12.2 km/h 7.6 mph /  12.2 km/h 51 % 0 in /  0.0 mm
21:00 63.3 °F /  17.4 °C 45 °F /  7.2 °C 30.1 in /  1017.8 hPa ENE 7 mph /  11.3 km/h 11 mph /  17.7 km/h 51 % 0 in /  0.0 mm
21:05 63 °F /  17.2 °C 44.4 °F /  6.9 °C 30.1 in /  1017.8 hPa East 5 mph /  8.0 km/h 10 mph /  16.1 km/h 51 % 0 in /  0.0 mm
21:10 62.8 °F /  17.1 °C 45 °F /  7.2 °C 30.1 in /  1017.8 hPa East 8.1 mph /  13.0 km/h 8.1 mph /  13.0 km/h 52 % 0 in /  0.0 mm
21:15 62.6 °F /  17.0 °C 44.8 °F /  7.1 °C 30.1 in /  1017.8 hPa NNE 8.1 mph /  13.0 km/h 8.1 mph /  13.0 km/h 52 % 0 in /  0.0 mm
21:20 62.4 °F /  16.9 °C 45.1 °F /  7.3 °C 30.1 in /  1017.8 hPa East 6.9 mph /  11.1 km/h 6.9 mph /  11.1 km/h 53 % 0 in /  0.0 mm
21:25 62.1 °F /  16.7 °C 45.1 °F /  7.3 °C 30.1 in /  1017.8 hPa ESE 5.8 mph /  9.3 km/h 5.8 mph /  9.3 km/h 54 % 0 in /  0.0 mm
21:30 61.9 °F /  16.6 °C 45 °F /  7.2 °C 30.1 in /  1017.8 hPa North 4.6 mph /  7.4 km/h 4.6 mph /  7.4 km/h 54 % 0 in /  0.0 mm
21:35 61.9 °F /  16.6 °C 45 °F /  7.2 °C 30.1 in /  1017.8 hPa NNE 3 mph /  4.8 km/h 5 mph /  8.0 km/h 54 % 0 in /  0.0 mm
21:40 61.7 °F /  16.5 °C 45 °F /  7.2 °C 30.1 in /  1017.8 hPa East 5.9 mph /  9.5 km/h 5.9 mph /  9.5 km/h 54 % 0 in /  0.0 mm
21:45 61.3 °F /  16.3 °C 44.4 °F /  6.9 °C 30.1 in /  1018.8 hPa NNE 7.6 mph /  12.2 km/h 7.6 mph /  12.2 km/h 54 % 0 in /  0.0 mm
21:50 61.3 °F /  16.3 °C 45 °F /  7.2 °C 30.1 in /  1018.8 hPa NE 5 mph /  8.0 km/h 8 mph /  12.9 km/h 55 % 0 in /  0.0 mm
21:55 61 °F /  16.1 °C 45.1 °F /  7.3 °C 30.1 in /  1018.8 hPa ENE 6 mph /  9.7 km/h 6 mph /  9.7 km/h 56 % 0 in /  0.0 mm
22:00 61 °F /  16.1 °C 45.1 °F /  7.3 °C 30.1 in /  1018.8 hPa ENE 3 mph /  4.8 km/h 6 mph /  9.7 km/h 56 % 0 in /  0.0 mm
22:05 60.8 °F /  16.0 °C 45 °F /  7.2 °C 30.1 in /  1018.8 hPa NNE 5.8 mph /  9.3 km/h 5.8 mph /  9.3 km/h 56 % 0 in /  0.0 mm
22:10 60.8 °F /  16.0 °C 45 °F /  7.2 °C 30.1 in /  1018.8 hPa ENE 4.7 mph /  7.6 km/h 4.7 mph /  7.6 km/h 56 % 0 in /  0.0 mm
22:15 60.8 °F /  16.0 °C 45.5 °F /  7.5 °C 30.1 in /  1018.8 hPa NE 5.8 mph /  9.3 km/h 5.8 mph /  9.3 km/h 57 % 0 in /  0.0 mm
22:20 60.6 °F /  15.9 °C 45.3 °F /  7.4 °C 30.1 in /  1018.8 hPa ENE 4.6 mph /  7.4 km/h 4.6 mph /  7.4 km/h 57 % 0 in /  0.0 mm
22:25 60.3 °F /  15.7 °C 45.3 °F /  7.4 °C 30.1 in /  1018.8 hPa ENE 5.8 mph /  9.3 km/h 5.8 mph /  9.3 km/h 58 % 0 in /  0.0 mm
22:30 60.3 °F /  15.7 °C 45.3 °F /  7.4 °C 30.1 in /  1018.8 hPa ENE 2 mph /  3.2 km/h 6 mph /  9.7 km/h 58 % 0 in /  0.0 mm
22:35 60.1 °F /  15.6 °C 45.1 °F /  7.3 °C 30.1 in /  1018.8 hPa NE 4.6 mph /  7.4 km/h 4.6 mph /  7.4 km/h 58 % 0 in /  0.0 mm
22:40 59.9 °F /  15.5 °C 45.5 °F /  7.5 °C 30.1 in /  1018.8 hPa NNE 3.5 mph /  5.6 km/h 3.5 mph /  5.6 km/h 59 % 0 in /  0.0 mm
22:45 59.7 °F /  15.4 °C 45.3 °F /  7.4 °C 30.1 in /  1018.8 hPa East 3.1 mph /  5.0 km/h 3.1 mph /  5.0 km/h 59 % 0 in /  0.0 mm
22:50 59.7 °F /  15.4 °C 45.3 °F /  7.4 °C 30.1 in /  1018.8 hPa ENE 2 mph /  3.2 km/h 3 mph /  4.8 km/h 59 % 0 in /  0.0 mm
22:55 59.7 °F /  15.4 °C 45.3 °F /  7.4 °C 30.1 in /  1018.8 hPa ENE 2 mph /  3.2 km/h 5 mph /  8.0 km/h 59 % 0 in /  0.0 mm
23:00 59.7 °F /  15.4 °C 45.3 °F /  7.4 °C 30.1 in /  1019.9 hPa SE 2.3 mph /  3.7 km/h 2.3 mph /  3.7 km/h 59 % 0 in /  0.0 mm
23:05 59.5 °F /  15.3 °C 45.1 °F /  7.3 °C 30.1 in /  1019.9 hPa East 1 mph /  1.6 km/h 3 mph /  4.8 km/h 59 % 0 in /  0.0 mm
23:10 59.5 °F /  15.3 °C 45.7 °F /  7.6 °C 30.1 in /  1019.9 hPa NE 3.5 mph /  5.6 km/h 3.5 mph /  5.6 km/h 60 % 0 in /  0.0 mm
23:15 59.4 °F /  15.2 °C 45.9 °F /  7.7 °C 30.1 in /  1019.9 hPa East 4.6 mph /  7.4 km/h 4.6 mph /  7.4 km/h 61 % 0 in /  0.0 mm
23:20 59.4 °F /  15.2 °C 46.2 °F /  7.9 °C 30.1 in /  1019.9 hPa ESE 2.6 mph /  4.2 km/h 2.6 mph /  4.2 km/h 62 % 0 in /  0.0 mm
23:25 59.2 °F /  15.1 °C 45.7 °F /  7.6 °C 30.1 in /  1019.9 hPa East 3.5 mph /  5.6 km/h 3.5 mph /  5.6 km/h 61 % 0 in /  0.0 mm
23:30 59 °F /  15.0 °C 45.7 °F /  7.6 °C 30.1 in /  1019.9 hPa East 2.4 mph /  3.9 km/h 2.4 mph /  3.9 km/h 61 % 0 in /  0.0 mm
23:35 53.2 °F /  11.8 °C 43 °F /  6.1 °C 30.1 in /  1019.9 hPa North 1 mph /  1.6 km/h 2 mph /  3.2 km/h 68 % 0 in /  0.0 mm
23:36 58.8 °F /  14.9 °C 45.3 °F /  7.4 °C 30.1 in /  1019.9 hPa NNE 2.3 mph /  3.7 km/h 2.3 mph /  3.7 km/h 61 % 0 in /  0.0 mm
23:41 58.6 °F /  14.8 °C 45.1 °F /  7.3 °C 30.1 in /  1018.8 hPa ENE 2.9 mph /  4.7 km/h 2.9 mph /  4.7 km/h 61 % 0 in /  0.0 mm
23:45 53.1 °F /  11.7 °C 42.8 °F /  6.0 °C 30.1 in /  1019.9 hPa Calm   1 mph /  1.6 km/h 68 % 0 in /  0.0 mm
23:46 58.6 °F /  14.8 °C 45.1 °F /  7.3 °C 30.1 in /  1018.8 hPa ENE 4.6 mph /  7.4 km/h 4.6 mph /  7.4 km/h 61 % 0 in /  0.0 mm
23:51 58.6 °F /  14.8 °C 45.1 °F /  7.3 °C 30.1 in /  1018.8 hPa ENE 2.3 mph /  3.7 km/h 2.3 mph /  3.7 km/h 61 % 0 in /  0.0 mm
23:55 52.9 °F /  11.6 °C 43 °F /  6.1 °C 30.1 in /  1018.8 hPa Calm   1 mph /  1.6 km/h 69 % 0 in /  0.0 mm
23:56 58.6 °F /  14.8 °C 45.7 °F /  7.6 °C 30.1 in /  1019.9 hPa NE 3.5 mph /  5.6 km/h 3.5 mph /  5.6 km/h 62 % 0 in /  0.0 mm
Meteo Sesrovires
Elogis d' Weather Underground - 3.5 mb

Guio original per  Jim McMurry - jmcmurry@mwt.net Adaptat per a la plantilla per  Wim van der Kuil - Leuven-Template.eu

Trobareu la nostra informacio del temps tambe a:

Weather Underground

AWEKAS